createdAt,value
2024-05-09T00:00:43.148Z,14.4
2024-05-09T00:15:42.502Z,12.9
2024-05-09T00:30:42.892Z,12.5
2024-05-09T00:45:44.587Z,11.2
2024-05-09T01:00:45.385Z,11.6
2024-05-09T01:15:46.088Z,10.7
2024-05-09T01:30:46.372Z,9.9
2024-05-09T01:45:48.125Z,10.6
2024-05-09T02:00:49.305Z,11.1
2024-05-09T02:15:49.114Z,11.8
2024-05-09T02:30:49.450Z,12.4
2024-05-09T02:45:49.565Z,11.9
2024-05-09T03:00:51.024Z,11.9
2024-05-09T03:15:51.279Z,11.8
2024-05-09T03:30:51.430Z,10.6
2024-05-09T03:45:53.840Z,9.3
2024-05-09T03:48:32.680Z,10.1
2024-05-09T04:03:34.207Z,9.9
2024-05-09T04:18:34.676Z,9.7
2024-05-09T04:33:35.794Z,9.5
2024-05-09T04:48:36.913Z,8.8
2024-05-09T05:03:41.100Z,8.6
2024-05-09T05:18:37.924Z,10.1
2024-05-09T05:33:39.485Z,9.5
2024-05-09T05:48:38.710Z,8.4
2024-05-09T06:03:39.718Z,8.7
2024-05-09T06:18:42.372Z,7.2
2024-05-09T06:33:42.082Z,6.7
2024-05-09T06:48:42.350Z,8.8
2024-05-09T07:03:42.616Z,10.2
2024-05-09T07:18:47.338Z,14.5
2024-05-09T07:33:46.951Z,11.9
2024-05-09T08:03:47.994Z,9.8
2024-05-09T08:18:46.838Z,6
2024-05-09T08:33:48.197Z,6
2024-05-09T08:48:50.674Z,5.8
2024-05-09T09:03:53.219Z,4.6
2024-05-09T09:18:49.661Z,5.5
2024-05-09T09:33:56.165Z,5.3
2024-05-09T09:48:51.112Z,3.5
2024-05-09T10:03:51.015Z,5
2024-05-09T10:18:53.108Z,2.6
2024-05-09T10:33:53.922Z,3.6
2024-05-09T10:48:54.034Z,3.1
2024-05-09T11:04:07.959Z,1.9
2024-05-09T11:18:57.532Z,1.1
2024-05-09T11:33:55.985Z,2.2
2024-05-09T11:48:55.685Z,3.7
2024-05-09T12:03:59.392Z,2.3
2024-05-09T12:18:59.176Z,2.4
2024-05-09T12:33:58.075Z,3.7
2024-05-09T12:48:59.507Z,5
2024-05-09T13:03:58.967Z,5.6
2024-05-09T13:19:01.041Z,4.1
2024-05-09T13:33:59.929Z,4.4
2024-05-09T13:49:12.352Z,4.4
2024-05-09T14:04:08.973Z,3.7
2024-05-09T14:19:12.681Z,3.9
2024-05-09T14:34:09.982Z,5.4
2024-05-09T14:49:12.837Z,6.1
2024-05-09T15:04:06.264Z,7
2024-05-09T15:19:18.828Z,5.8
2024-05-09T15:34:07.908Z,8.3
2024-05-09T15:49:06.833Z,6.8
2024-05-09T16:04:07.836Z,6.8
2024-05-09T16:19:07.231Z,6.5
2024-05-09T16:34:09.772Z,6.7
2024-05-09T16:49:14.907Z,6.8
2024-05-09T17:04:09.582Z,6.8
2024-05-09T17:19:09.860Z,7.1
2024-05-09T17:34:17.336Z,7.3
2024-05-09T17:49:13.438Z,7.9
2024-05-09T18:04:12.663Z,7.1
2024-05-09T18:19:13.845Z,7.2
2024-05-09T18:34:15.615Z,6.8
2024-05-09T18:49:15.088Z,8.1
2024-05-09T19:04:16.803Z,8.3
2024-05-09T19:19:15.582Z,8.4
2024-05-09T19:34:15.817Z,9.9
2024-05-09T19:49:22.355Z,9.1
2024-05-09T20:04:17.450Z,9.5
2024-05-09T20:19:18.695Z,8.4
2024-05-09T20:34:19.042Z,9.7
2024-05-09T20:49:20.240Z,9.9
2024-05-09T21:04:21.797Z,10.1
2024-05-09T21:19:23.401Z,10.3
2024-05-09T21:34:23.392Z,11.3
2024-05-09T21:49:23.869Z,10.9
2024-05-09T22:00:39.895Z,10.3
2024-05-09T22:15:40.872Z,11.7
2024-05-09T22:30:40.715Z,11.2
2024-05-09T22:45:43.019Z,11.4
2024-05-09T23:00:40.958Z,10.7
2024-05-09T23:15:40.733Z,11.2
2024-05-09T23:30:42.768Z,12.5
2024-05-09T23:45:44.231Z,11.6
